createdAt,value
2022-09-01T00:00:31.311Z,0.00
2022-09-01T00:01:31.301Z,0.00
2022-09-01T00:02:31.347Z,0.00
2022-09-01T00:03:31.303Z,0.00
2022-09-01T00:04:31.303Z,0.00
2022-09-01T00:05:31.254Z,0.00
2022-09-01T00:06:31.256Z,0.00
2022-09-01T00:07:31.237Z,0.00
2022-09-01T00:08:31.256Z,0.00
2022-09-01T00:09:31.216Z,0.00
2022-09-01T00:10:31.204Z,0.00
2022-09-01T00:11:31.195Z,0.00
2022-09-01T00:12:31.194Z,0.00
2022-09-01T00:13:31.207Z,0.00
2022-09-01T00:14:31.192Z,0.00
2022-09-01T00:15:31.208Z,0.00
2022-09-01T00:16:31.166Z,0.00
2022-09-01T00:17:31.136Z,0.00
2022-09-01T00:18:31.178Z,0.00
2022-09-01T00:19:31.140Z,0.00
2022-09-01T00:20:31.099Z,0.00
2022-09-01T00:21:31.088Z,0.00
2022-09-01T00:22:31.086Z,0.00
2022-09-01T00:23:31.069Z,0.00
2022-09-01T00:24:31.089Z,0.00
2022-09-01T00:25:31.051Z,0.00
2022-09-01T00:26:31.041Z,0.00
2022-09-01T00:27:31.216Z,0.00
2022-09-01T00:28:31.021Z,0.00
2022-09-01T00:29:31.032Z,0.00
2022-09-01T00:30:31.011Z,0.00
2022-09-01T00:31:31.030Z,0.00
2022-09-01T00:32:30.982Z,0.00
2022-09-01T00:33:30.984Z,0.00
2022-09-01T00:34:30.994Z,0.00
2022-09-01T00:35:30.944Z,0.00
2022-09-01T00:36:31.938Z,0.00
2022-09-01T00:37:30.925Z,0.00
2022-09-01T00:38:30.916Z,0.00
2022-09-01T00:39:30.936Z,0.00
2022-09-01T00:40:30.981Z,0.00
2022-09-01T00:41:30.901Z,0.00
2022-09-01T00:42:30.884Z,0.00
2022-09-01T00:43:30.874Z,0.00
2022-09-01T00:44:31.335Z,0.00
2022-09-01T00:45:30.847Z,0.00
2022-09-01T00:46:30.973Z,0.00
2022-09-01T00:47:30.836Z,0.00
2022-09-01T00:48:30.827Z,0.00
2022-09-01T00:49:31.428Z,0.00
2022-09-01T00:50:30.799Z,0.00
2022-09-01T00:51:30.782Z,0.00
2022-09-01T00:52:30.790Z,0.00
2022-09-01T00:53:30.770Z,0.00
2022-09-01T00:54:30.780Z,0.00
2022-09-01T00:55:30.741Z,0.00
2022-09-01T00:56:30.740Z,0.00
2022-09-01T00:57:30.727Z,0.00
2022-09-01T00:58:30.722Z,0.00
2022-09-01T00:59:30.733Z,0.00
2022-09-01T01:00:30.695Z,0.00
2022-09-01T01:01:30.720Z,0.00
2022-09-01T01:02:30.721Z,0.00
2022-09-01T01:03:30.664Z,0.00
2022-09-01T01:04:30.685Z,0.00
2022-09-01T01:05:30.644Z,0.00
2022-09-01T01:06:32.214Z,0.00
2022-09-01T01:07:30.622Z,0.00
2022-09-01T01:08:30.618Z,0.00
2022-09-01T01:09:30.633Z,0.00
2022-09-01T01:10:30.596Z,0.00
2022-09-01T01:11:30.587Z,0.00
2022-09-01T01:12:30.588Z,0.00
2022-09-01T01:13:30.558Z,0.00
2022-09-01T01:14:30.577Z,0.00
2022-09-01T01:15:30.547Z,0.00
2022-09-01T01:16:30.604Z,0.00
2022-09-01T01:17:30.518Z,0.00
2022-09-01T01:18:30.509Z,0.00
2022-09-01T01:19:30.520Z,0.00
2022-09-01T01:20:31.511Z,0.00
2022-09-01T01:21:30.479Z,0.00
2022-09-01T01:22:30.470Z,0.00
2022-09-01T01:23:30.452Z,0.00
2022-09-01T01:24:30.471Z,0.00
2022-09-01T01:25:30.444Z,0.00
2022-09-01T01:26:30.431Z,0.00
2022-09-01T01:27:30.423Z,0.00
2022-09-01T01:28:30.410Z,0.00
2022-09-01T01:29:30.432Z,0.00
2022-09-01T01:30:30.448Z,0.00
2022-09-01T01:31:30.374Z,0.00
2022-09-01T01:32:30.364Z,0.00
2022-09-01T01:33:30.366Z,0.00
2022-09-01T01:34:30.366Z,0.00
2022-09-01T01:35:30.342Z,0.00
2022-09-01T01:36:30.325Z,0.00
2022-09-01T01:37:30.325Z,0.00
2022-09-01T01:38:30.306Z,0.00
2022-09-01T01:39:30.324Z,0.00
2022-09-01T01:40:30.341Z,0.00
2022-09-01T01:41:30.276Z,0.00
2022-09-01T01:42:30.264Z,0.00
2022-09-01T01:43:30.265Z,0.00
2022-09-01T01:44:30.277Z,0.00
2022-09-01T01:45:30.236Z,0.00
2022-09-01T01:46:30.298Z,0.00
2022-09-01T01:47:30.218Z,0.00
2022-09-01T01:48:30.199Z,0.00
2022-09-01T01:49:30.220Z,0.00
2022-09-01T01:50:30.180Z,0.00
2022-09-01T01:51:30.179Z,0.00
2022-09-01T01:52:30.166Z,0.00
2022-09-01T01:53:30.152Z,0.00
2022-09-01T01:54:30.171Z,0.00
2022-09-01T01:55:30.132Z,0.00
2022-09-01T01:56:30.122Z,0.00
2022-09-01T01:57:30.112Z,0.00
2022-09-01T01:58:30.095Z,0.00
2022-09-01T01:59:30.120Z,0.00
2022-09-01T02:00:30.793Z,0.00
2022-09-01T02:01:30.156Z,0.00
2022-09-01T02:02:30.084Z,0.00
2022-09-01T02:03:30.055Z,0.00
2022-09-01T02:04:30.056Z,0.00
2022-09-01T02:05:30.026Z,0.00
2022-09-01T02:06:30.022Z,0.00
2022-09-01T02:07:32.959Z,0.00
2022-09-01T02:08:29.996Z,0.00
2022-09-01T02:09:30.016Z,0.00
2022-09-01T02:10:29.975Z,0.00
2022-09-01T02:11:29.967Z,0.00
2022-09-01T02:12:29.959Z,0.00
2022-09-01T02:13:29.949Z,0.00
2022-09-01T02:14:29.960Z,0.00
2022-09-01T02:15:29.939Z,0.00
2022-09-01T02:16:29.939Z,0.00
2022-09-01T02:17:29.906Z,0.00
2022-09-01T02:18:29.904Z,0.00
2022-09-01T02:19:29.910Z,0.00
2022-09-01T02:20:29.871Z,0.00
2022-09-01T02:21:29.861Z,0.00
2022-09-01T02:22:29.853Z,0.00
2022-09-01T02:23:29.848Z,0.00
2022-09-01T02:24:29.852Z,0.00
2022-09-01T02:25:29.830Z,0.00
2022-09-01T02:26:29.814Z,0.00
2022-09-01T02:27:29.807Z,0.00
2022-09-01T02:28:29.783Z,0.00
2022-09-01T02:29:29.814Z,0.00
2022-09-01T02:30:29.784Z,0.00
2022-09-01T02:31:29.763Z,0.00
2022-09-01T02:32:29.746Z,0.00
2022-09-01T02:33:29.747Z,0.00
2022-09-01T02:34:29.754Z,0.00
2022-09-01T02:35:29.726Z,0.00
2022-09-01T02:36:29.715Z,0.00
2022-09-01T02:37:29.709Z,0.00
2022-09-01T02:38:29.740Z,0.00
2022-09-01T02:39:29.698Z,0.00
2022-09-01T02:40:29.716Z,0.00
2022-09-01T02:41:29.658Z,0.00
2022-09-01T02:42:29.656Z,0.00
2022-09-01T02:43:29.638Z,0.00
2022-09-01T02:44:29.648Z,0.00
2022-09-01T02:45:29.720Z,0.00
2022-09-01T02:46:29.602Z,0.00
2022-09-01T02:47:29.754Z,0.00
2022-09-01T02:48:29.581Z,0.00
2022-09-01T02:49:29.604Z,0.00
2022-09-01T02:50:29.561Z,0.00
2022-09-01T02:51:29.553Z,0.00
2022-09-01T02:52:29.541Z,0.00
2022-09-01T02:53:29.563Z,0.00
2022-09-01T02:54:29.542Z,0.00
2022-09-01T02:55:29.513Z,0.00
2022-09-01T02:56:29.532Z,0.00
2022-09-01T02:57:29.507Z,0.00
2022-09-01T02:58:29.482Z,0.00
2022-09-01T02:59:29.504Z,0.00
2022-09-01T03:00:29.463Z,0.00
2022-09-01T03:01:29.961Z,0.00
2022-09-01T03:02:29.435Z,0.00
2022-09-01T03:03:29.436Z,0.00
2022-09-01T03:04:29.457Z,0.00
2022-09-01T03:05:29.409Z,0.00
2022-09-01T03:06:29.400Z,0.00
2022-09-01T03:07:29.387Z,0.00
2022-09-01T03:08:29.376Z,0.00
2022-09-01T03:09:29.398Z,0.00
2022-09-01T03:10:29.370Z,0.00
2022-09-01T03:11:29.347Z,0.00
2022-09-01T03:12:29.329Z,0.00
2022-09-01T03:13:29.330Z,0.00
2022-09-01T03:14:29.310Z,0.00
2022-09-01T03:15:29.330Z,0.00
2022-09-01T03:16:29.362Z,0.00
2022-09-01T03:17:29.291Z,0.00
2022-09-01T03:18:29.270Z,0.00
2022-09-01T03:19:29.279Z,0.00
2022-09-01T03:20:29.273Z,0.00
2022-09-01T03:21:29.242Z,0.00
2022-09-01T03:22:29.230Z,0.00
2022-09-01T03:23:29.222Z,0.00
2022-09-01T03:24:29.229Z,0.00
2022-09-01T03:25:29.224Z,0.00
2022-09-01T03:26:29.183Z,0.00
2022-09-01T03:27:29.182Z,0.00
2022-09-01T03:28:29.174Z,0.00
2022-09-01T03:29:29.164Z,0.00
2022-09-01T03:30:29.185Z,0.00
2022-09-01T03:31:31.468Z,0.00
2022-09-01T03:32:29.126Z,0.00
2022-09-01T03:33:29.116Z,0.00
2022-09-01T03:34:29.106Z,0.00
2022-09-01T03:35:29.128Z,0.00
2022-09-01T03:36:29.086Z,0.00
2022-09-01T03:37:29.078Z,0.00
2022-09-01T03:38:29.064Z,0.00
2022-09-01T03:39:29.057Z,0.00
2022-09-01T03:40:29.128Z,0.00
2022-09-01T03:41:29.044Z,0.00
2022-09-01T03:42:29.030Z,0.00
2022-09-01T03:43:35.514Z,0.00
2022-09-01T03:44:30.000Z,0.00
2022-09-01T03:45:29.038Z,0.00
2022-09-01T03:46:31.079Z,0.00
2022-09-01T03:47:28.981Z,0.00
2022-09-01T03:48:28.961Z,0.00
2022-09-01T03:49:28.957Z,0.00
2022-09-01T03:50:28.962Z,0.00
2022-09-01T03:51:28.933Z,0.00
2022-09-01T03:52:28.923Z,0.00
2022-09-01T03:53:28.913Z,0.00
2022-09-01T03:54:28.901Z,0.00
2022-09-01T03:55:28.940Z,0.00
2022-09-01T03:56:28.874Z,0.00
2022-09-01T03:57:28.874Z,0.00
2022-09-01T03:58:28.857Z,0.00
2022-09-01T03:59:28.853Z,0.00
2022-09-01T04:00:28.867Z,0.00
2022-09-01T04:01:28.886Z,0.00
2022-09-01T04:02:28.911Z,0.00
2022-09-01T04:03:31.011Z,0.00
2022-09-01T04:04:28.796Z,0.00
2022-09-01T04:05:28.830Z,0.00
2022-09-01T04:06:28.778Z,0.00
2022-09-01T04:07:28.768Z,0.00
2022-09-01T04:08:32.370Z,0.00
2022-09-01T04:09:28.708Z,1.00
2022-09-01T04:10:28.756Z,0.00
2022-09-01T04:11:28.738Z,0.00
2022-09-01T04:12:28.709Z,0.00
2022-09-01T04:13:28.724Z,0.00
2022-09-01T04:14:29.276Z,0.00
2022-09-01T04:15:28.669Z,1.00
2022-09-01T04:16:28.710Z,0.00
2022-09-01T04:17:30.545Z,2.00
2022-09-01T04:18:28.601Z,1.00
2022-09-01T04:19:28.593Z,1.00
2022-09-01T04:20:28.602Z,1.00
2022-09-01T04:21:28.574Z,2.00
2022-09-01T04:22:28.562Z,8.00
2022-09-01T04:23:28.560Z,5.00
2022-09-01T04:24:28.547Z,4.00
2022-09-01T04:25:28.561Z,3.00
2022-09-01T04:26:28.516Z,2.00
2022-09-01T04:27:28.533Z,4.00
2022-09-01T04:28:28.495Z,5.00
2022-09-01T04:29:28.494Z,9.00
2022-09-01T04:30:28.495Z,7.00
2022-09-01T04:31:28.495Z,9.00
2022-09-01T04:32:28.460Z,12.00
2022-09-01T04:33:28.459Z,12.00
2022-09-01T04:34:28.430Z,17.00
2022-09-01T04:35:28.459Z,15.00
2022-09-01T04:36:28.409Z,16.00
2022-09-01T04:37:28.408Z,22.00
2022-09-01T04:38:28.391Z,22.00
2022-09-01T04:39:28.387Z,22.00
2022-09-01T04:40:28.467Z,25.00
2022-09-01T04:41:28.370Z,28.00
2022-09-01T04:42:28.368Z,34.00
2022-09-01T04:43:28.340Z,28.00
2022-09-01T04:44:28.333Z,33.00
2022-09-01T04:45:28.393Z,35.00
2022-09-01T04:46:28.310Z,39.00
2022-09-01T04:47:28.301Z,43.00
2022-09-01T04:48:28.285Z,45.00
2022-09-01T04:49:28.282Z,49.00
2022-09-01T04:50:28.293Z,54.00
2022-09-01T04:51:28.266Z,54.00
2022-09-01T04:52:28.243Z,59.00
2022-09-01T04:53:28.612Z,60.00
2022-09-01T04:54:28.223Z,63.00
2022-09-01T04:55:28.254Z,67.00
2022-09-01T04:56:28.205Z,71.00
2022-09-01T04:57:28.196Z,73.00
2022-09-01T04:58:28.184Z,77.00
2022-09-01T04:59:28.176Z,76.00
2022-09-01T05:00:28.196Z,84.00
2022-09-01T05:01:28.185Z,85.00
2022-09-01T05:02:28.173Z,85.00
2022-09-01T05:03:28.137Z,92.00
2022-09-01T05:04:28.126Z,91.00
2022-09-01T05:05:28.148Z,97.00
2022-09-01T05:06:28.099Z,99.00
2022-09-01T05:07:28.099Z,102.00
2022-09-01T05:08:28.079Z,105.00
2022-09-01T05:09:28.101Z,107.00
2022-09-01T05:10:28.089Z,111.00
2022-09-01T05:11:28.059Z,117.00
2022-09-01T05:12:28.048Z,112.00
2022-09-01T05:13:28.031Z,99.00
2022-09-01T05:14:28.022Z,88.00
2022-09-01T05:15:28.041Z,93.00
2022-09-01T05:16:28.054Z,98.00
2022-09-01T05:17:27.993Z,100.00
2022-09-01T05:18:27.981Z,112.00
2022-09-01T05:19:27.972Z,120.00
2022-09-01T05:20:27.983Z,123.00
2022-09-01T05:21:27.954Z,127.00
2022-09-01T05:22:27.933Z,133.00
2022-09-01T05:23:27.947Z,145.00
2022-09-01T05:24:27.915Z,164.00
2022-09-01T05:25:27.937Z,163.00
2022-09-01T05:26:27.896Z,159.00
2022-09-01T05:27:27.895Z,158.00
2022-09-01T05:28:27.876Z,165.00
2022-09-01T05:29:27.869Z,173.00
2022-09-01T05:30:27.883Z,174.00
2022-09-01T05:31:27.889Z,177.00
2022-09-01T05:32:27.942Z,180.00
2022-09-01T05:33:27.827Z,180.00
2022-09-01T05:34:27.816Z,186.00
2022-09-01T05:35:31.667Z,197.00
2022-09-01T05:36:28.799Z,213.00
2022-09-01T05:37:27.787Z,219.00
2022-09-01T05:38:27.769Z,225.00
2022-09-01T05:39:27.769Z,221.00
2022-09-01T05:40:27.842Z,227.00
2022-09-01T05:41:27.741Z,228.00
2022-09-01T05:42:27.739Z,229.00
2022-09-01T05:43:28.480Z,232.00
2022-09-01T05:44:27.725Z,235.00
2022-09-01T05:45:27.731Z,238.00
2022-09-01T05:46:27.717Z,244.00
2022-09-01T05:47:27.682Z,251.00
2022-09-01T05:48:27.671Z,253.00
2022-09-01T05:49:27.662Z,258.00
2022-09-01T05:50:27.683Z,263.00
2022-09-01T05:51:43.746Z,276.00
2022-09-01T05:52:28.643Z,280.00
2022-09-01T05:53:27.614Z,282.00
2022-09-01T05:54:27.614Z,281.00
2022-09-01T05:55:27.625Z,296.00
2022-09-01T05:56:27.594Z,298.00
2022-09-01T05:57:35.348Z,298.00
2022-09-01T05:59:22.328Z,301.00
2022-09-01T05:59:28.678Z,306.00
2022-09-01T06:00:27.593Z,312.00
2022-09-01T06:01:27.550Z,313.00
2022-09-01T06:02:27.755Z,321.00
2022-09-01T06:03:27.583Z,332.00
2022-09-01T06:04:27.527Z,335.00
2022-09-01T06:05:27.528Z,340.00
2022-09-01T06:06:27.488Z,336.00
2022-09-01T06:07:27.477Z,329.00
2022-09-01T06:08:27.478Z,350.00
2022-09-01T06:09:27.456Z,367.00
2022-09-01T06:10:27.512Z,377.00
2022-09-01T06:11:27.432Z,378.00
2022-09-01T06:12:27.430Z,413.00
2022-09-01T06:13:27.638Z,388.00
2022-09-01T06:14:27.408Z,405.00
2022-09-01T06:15:27.420Z,395.00
2022-09-01T06:16:27.435Z,412.00
2022-09-01T06:17:27.386Z,433.00
2022-09-01T06:18:27.363Z,422.00
2022-09-01T06:19:27.360Z,430.00
2022-09-01T06:20:27.374Z,429.00
2022-09-01T06:21:27.335Z,443.00
2022-09-01T06:22:27.324Z,437.00
2022-09-01T06:23:27.316Z,452.00
2022-09-01T06:24:27.315Z,453.00
2022-09-01T06:25:27.316Z,490.00
2022-09-01T06:26:27.293Z,506.00
2022-09-01T06:27:27.267Z,543.00
2022-09-01T06:28:27.265Z,531.00
2022-09-01T06:29:27.247Z,484.00
2022-09-01T06:30:27.298Z,446.00
2022-09-01T06:31:27.336Z,476.00
2022-09-01T06:32:27.363Z,491.00
2022-09-01T06:33:27.209Z,521.00
2022-09-01T06:34:27.210Z,565.00
2022-09-01T06:35:27.227Z,614.00
2022-09-01T06:36:27.189Z,634.00
2022-09-01T06:37:27.170Z,624.00
2022-09-01T06:38:27.173Z,615.00
2022-09-01T06:39:27.150Z,586.00
2022-09-01T06:40:27.245Z,595.00
2022-09-01T06:41:27.131Z,582.00
2022-09-01T06:42:27.121Z,568.00
2022-09-01T06:43:27.111Z,536.00
2022-09-01T06:44:27.103Z,527.00
2022-09-01T06:45:27.105Z,547.00
2022-09-01T06:46:27.125Z,552.00
2022-09-01T06:47:27.062Z,533.00
2022-09-01T06:48:27.063Z,540.00
2022-09-01T06:49:27.052Z,542.00
2022-09-01T06:51:28.023Z,547.00
2022-09-01T06:52:27.262Z,573.00
2022-09-01T06:53:34.357Z,555.00
2022-09-01T06:54:27.992Z,564.00
2022-09-01T06:55:27.008Z,562.00
2022-09-01T06:56:26.977Z,572.00
2022-09-01T06:58:27.966Z,592.00
2022-09-01T06:59:29.185Z,603.00
2022-09-01T07:00:27.958Z,605.00
2022-09-01T07:01:27.048Z,608.00
2022-09-01T07:02:27.599Z,625.00
2022-09-01T07:03:26.898Z,627.00
2022-09-01T07:04:26.900Z,619.00
2022-09-01T07:08:27.872Z,638.00
2022-09-01T07:09:47.257Z,650.00
2022-09-01T07:10:27.853Z,648.00
2022-09-01T07:12:28.158Z,637.00
2022-09-01T07:13:26.794Z,654.00
2022-09-01T07:14:26.799Z,674.00
2022-09-01T07:16:33.861Z,671.00
2022-09-01T07:17:27.754Z,687.00
2022-09-01T07:18:27.125Z,704.00
2022-09-01T07:19:48.321Z,712.00
2022-09-01T07:20:27.851Z,709.00
2022-09-01T07:22:06.378Z,718.00
2022-09-01T07:23:27.696Z,720.00
2022-09-01T07:24:31.701Z,734.00
2022-09-01T07:25:34.921Z,747.00
2022-09-01T07:26:27.668Z,747.00
2022-09-01T07:27:26.649Z,747.00
2022-09-01T07:28:36.172Z,756.00
2022-09-01T07:29:27.640Z,775.00
2022-09-01T07:30:26.658Z,787.00
2022-09-01T07:32:44.010Z,809.00
2022-09-01T07:33:44.268Z,830.00
2022-09-01T07:34:46.055Z,838.00
2022-09-01T07:35:27.593Z,856.00
2022-09-01T07:36:26.865Z,867.00
2022-09-01T07:43:29.780Z,983.00
2022-09-01T07:44:27.488Z,1008.00
2022-09-01T07:45:27.331Z,1028.00
2022-09-01T07:46:41.797Z,1051.00
2022-09-01T07:49:34.691Z,1120.00
2022-09-01T07:51:35.262Z,1140.00
2022-09-01T07:51:36.450Z,1169.00
2022-09-01T07:52:27.398Z,1199.00
2022-09-01T07:53:26.392Z,1250.00
2022-09-01T07:54:26.387Z,1284.00
2022-09-01T07:55:26.389Z,1381.00
2022-09-01T07:56:26.361Z,1476.00
2022-09-01T07:57:26.348Z,1561.00
2022-09-01T07:58:26.342Z,1658.00
2022-09-01T07:59:26.323Z,1759.00
2022-09-01T08:00:28.406Z,1852.00
2022-09-01T08:01:27.383Z,1992.00
2022-09-01T08:02:26.381Z,2123.00
2022-09-01T08:03:26.329Z,2297.00
2022-09-01T08:04:26.292Z,2492.00
2022-09-01T08:05:26.263Z,2726.00
2022-09-01T08:06:26.282Z,2952.00
2022-09-01T08:07:26.252Z,3234.00
2022-09-01T08:08:29.074Z,3526.00
2022-09-01T08:09:35.124Z,3911.00
2022-09-01T08:10:27.217Z,4275.00
2022-09-01T08:11:58.151Z,4663.00
2022-09-01T08:12:30.191Z,5069.00
2022-09-01T08:13:26.185Z,5508.00
2022-09-01T08:14:26.178Z,5908.00
2022-09-01T08:16:06.537Z,6354.00
2022-09-01T08:16:27.205Z,6730.00
2022-09-01T08:17:50.221Z,7087.00
2022-09-01T08:18:27.198Z,7501.00
2022-09-01T08:19:26.120Z,7870.00
2022-09-01T08:20:26.111Z,8180.00
2022-09-01T08:21:26.130Z,8405.00
2022-09-01T08:22:26.092Z,8707.00
2022-09-01T08:23:26.082Z,8909.00
2022-09-01T08:24:26.073Z,9155.00
2022-09-01T08:25:26.061Z,9380.00
2022-09-01T08:26:26.085Z,9461.00
2022-09-01T08:27:26.045Z,9733.00
2022-09-01T08:28:26.780Z,9867.00
2022-09-01T08:29:26.024Z,10023.00
2022-09-01T08:30:26.046Z,10065.00
2022-09-01T08:31:30.258Z,10173.00
2022-09-01T08:32:25.996Z,10452.00
2022-09-01T08:33:25.985Z,10571.00
2022-09-01T08:34:25.975Z,10755.00
2022-09-01T08:35:26.921Z,10912.00
2022-09-01T08:36:26.202Z,10908.00
2022-09-01T08:37:25.945Z,11107.00
2022-09-01T08:38:25.936Z,11221.00
2022-09-01T08:39:25.919Z,11290.00
2022-09-01T08:40:25.988Z,11341.00
2022-09-01T08:41:28.697Z,11583.00
2022-09-01T08:42:27.009Z,11583.00
2022-09-01T08:43:26.883Z,11811.00
2022-09-01T08:44:25.882Z,11866.00
2022-09-01T08:45:25.870Z,11849.00
2022-09-01T08:46:26.008Z,12048.00
2022-09-01T08:47:39.321Z,12079.00
2022-09-01T08:49:18.442Z,11935.00
2022-09-01T08:49:27.628Z,11394.00
2022-09-01T08:50:25.814Z,9933.00
2022-09-01T08:51:25.825Z,8014.00
2022-09-01T08:52:25.841Z,6044.00
2022-09-01T08:53:25.806Z,4463.00
2022-09-01T08:54:29.477Z,3211.00
2022-09-01T08:55:26.762Z,2345.00
2022-09-01T08:56:25.786Z,1750.00
2022-09-01T08:57:25.749Z,1380.00
2022-09-01T08:58:25.789Z,1157.00
2022-09-01T08:59:25.726Z,1027.00
2022-09-01T09:00:25.726Z,949.00
2022-09-01T09:01:25.777Z,924.00
2022-09-01T09:02:26.140Z,924.00
2022-09-01T09:03:25.702Z,911.00
2022-09-01T09:04:25.704Z,869.00
2022-09-01T09:05:25.671Z,817.00
2022-09-01T09:06:25.701Z,837.00
2022-09-01T09:07:25.652Z,1091.00
2022-09-01T09:08:26.628Z,1591.00
2022-09-01T09:09:34.199Z,2564.00
2022-09-01T09:10:26.614Z,4459.00
2022-09-01T09:11:25.644Z,7090.00
2022-09-01T09:12:25.601Z,9460.00
2022-09-01T09:13:25.584Z,11226.00
2022-09-01T09:14:25.585Z,12111.00
2022-09-01T09:15:25.694Z,12716.00
2022-09-01T09:16:25.605Z,12607.00
2022-09-01T09:17:25.545Z,18810.00
2022-09-01T09:18:39.258Z,3662.00
2022-09-01T09:19:26.520Z,13346.00
2022-09-01T09:20:25.519Z,13463.00
2022-09-01T09:21:25.539Z,16460.00
2022-09-01T09:22:25.504Z,4413.00
2022-09-01T09:23:25.886Z,310.00
2022-09-01T09:24:25.479Z,1514.00
2022-09-01T09:25:25.461Z,1024.00
2022-09-01T09:26:25.482Z,553.00
2022-09-01T09:27:26.823Z,276.00
2022-09-01T09:28:25.772Z,644.00
2022-09-01T09:29:25.433Z,14441.00
2022-09-01T09:30:26.561Z,14616.00
2022-09-01T09:31:25.474Z,14173.00
2022-09-01T09:32:39.580Z,14806.00
2022-09-01T09:33:51.444Z,17716.00
2022-09-01T09:34:26.377Z,4730.00
2022-09-01T09:35:25.356Z,1010.00
2022-09-01T09:36:25.618Z,582.00
2022-09-01T09:37:25.347Z,562.00
2022-09-01T09:38:25.337Z,695.00
2022-09-01T09:39:25.318Z,710.00
2022-09-01T09:40:25.568Z,582.00
2022-09-01T09:41:27.404Z,419.00
2022-09-01T09:42:29.849Z,14869.00
2022-09-01T09:43:28.220Z,15876.00
2022-09-01T09:44:25.290Z,1614.00
2022-09-01T09:45:25.281Z,1051.00
2022-09-01T09:46:25.742Z,867.00
2022-09-01T09:47:42.779Z,764.00
2022-09-01T09:48:26.232Z,650.00
2022-09-01T09:49:34.627Z,835.00
2022-09-01T09:50:26.213Z,669.00
2022-09-01T09:51:25.675Z,2080.00
2022-09-01T09:52:25.194Z,1211.00
2022-09-01T09:53:25.195Z,14586.00
2022-09-01T09:54:25.562Z,16847.00
2022-09-01T09:55:25.164Z,9457.00
2022-09-01T09:56:25.189Z,18020.00
2022-09-01T09:57:25.154Z,14291.00
2022-09-01T09:58:25.139Z,15737.00
2022-09-01T09:59:39.899Z,702.00
2022-09-01T10:00:26.142Z,16014.00
2022-09-01T10:01:25.149Z,15995.00
2022-09-01T10:02:25.097Z,19516.00
2022-09-01T10:03:29.088Z,14368.00
2022-09-01T10:04:25.212Z,15335.00
2022-09-01T10:05:25.080Z,15163.00
2022-09-01T10:06:25.080Z,16432.00
2022-09-01T10:07:25.050Z,1451.00
2022-09-01T10:08:25.063Z,1147.00
2022-09-01T10:09:25.031Z,984.00
2022-09-01T10:10:25.029Z,1128.00
2022-09-01T10:11:25.041Z,515.00
2022-09-01T10:12:24.994Z,2262.00
2022-09-01T10:13:24.985Z,1712.00
2022-09-01T10:14:35.448Z,1175.00
2022-09-01T10:15:25.980Z,1066.00
2022-09-01T10:16:26.779Z,846.00
2022-09-01T10:17:26.111Z,6840.00
2022-09-01T10:18:32.060Z,7926.00
2022-09-01T10:19:25.936Z,2699.00
2022-09-01T10:20:24.917Z,964.00
2022-09-01T10:21:24.928Z,1442.00
2022-09-01T10:22:24.907Z,10671.00
2022-09-01T10:23:27.192Z,4802.00
2022-09-01T10:24:26.911Z,16287.00
2022-09-01T10:25:25.871Z,16434.00
2022-09-01T10:26:24.909Z,16229.00
2022-09-01T10:27:24.850Z,16021.00
2022-09-01T10:28:25.044Z,16993.00
2022-09-01T10:29:24.828Z,1757.00
2022-09-01T10:30:24.891Z,1230.00
2022-09-01T10:31:32.217Z,1302.00
2022-09-01T10:32:36.659Z,1172.00
2022-09-01T10:33:25.785Z,847.00
2022-09-01T10:34:25.835Z,3013.00
2022-09-01T10:35:24.764Z,16897.00
2022-09-01T10:36:24.813Z,16752.00
2022-09-01T10:37:27.375Z,16327.00
2022-09-01T10:38:24.754Z,15449.00
2022-09-01T10:39:27.674Z,15734.00
2022-09-01T10:40:30.793Z,17183.00
2022-09-01T10:41:25.767Z,2354.00
2022-09-01T10:42:24.696Z,1391.00
2022-09-01T10:43:24.688Z,1107.00
2022-09-01T10:44:24.678Z,1076.00
2022-09-01T10:45:25.150Z,797.00
2022-09-01T10:46:26.155Z,652.00
2022-09-01T10:47:24.679Z,1548.00
2022-09-01T10:48:33.293Z,4303.00
2022-09-01T10:49:27.726Z,17057.00
2022-09-01T10:50:24.621Z,16605.00
2022-09-01T10:51:28.919Z,17076.00
2022-09-01T10:52:28.511Z,16791.00
2022-09-01T10:53:26.868Z,16753.00
2022-09-01T10:54:24.583Z,16769.00
2022-09-01T10:55:25.430Z,16817.00
2022-09-01T10:56:35.401Z,16662.00
2022-09-01T10:57:27.752Z,16728.00
2022-09-01T10:59:37.244Z,16644.00
2022-09-01T11:00:40.880Z,16665.00
2022-09-01T11:01:47.407Z,17028.00
2022-09-01T11:02:27.652Z,16990.00
2022-09-01T11:03:34.132Z,22312.00
2022-09-01T11:04:25.571Z,8096.00
2022-09-01T11:05:24.480Z,17535.00
2022-09-01T11:06:24.595Z,18834.00
2022-09-01T11:07:33.464Z,9192.00
2022-09-01T11:08:25.457Z,1113.00
2022-09-01T11:09:24.442Z,2199.00
2022-09-01T11:10:31.969Z,4966.00
2022-09-01T11:11:25.440Z,5113.00
2022-09-01T11:12:29.817Z,5098.00
2022-09-01T11:13:25.457Z,5307.00
2022-09-01T11:14:24.385Z,5474.00
2022-09-01T11:15:26.646Z,5555.00
2022-09-01T11:17:25.580Z,5452.00
2022-09-01T11:18:24.354Z,6842.00
2022-09-01T11:19:24.345Z,462.00
2022-09-01T11:20:24.333Z,1439.00
2022-09-01T11:21:25.814Z,6336.00
2022-09-01T11:22:26.100Z,5849.00
2022-09-01T11:23:24.996Z,6003.00
2022-09-01T11:24:24.298Z,6157.00
2022-09-01T11:25:24.288Z,6262.00
2022-09-01T11:26:24.299Z,6364.00
2022-09-01T11:27:24.270Z,6441.00
2022-09-01T11:28:24.262Z,6392.00
2022-09-01T11:29:24.249Z,6308.00
2022-09-01T11:30:24.340Z,6472.00
2022-09-01T11:31:24.322Z,6559.00
2022-09-01T11:32:24.223Z,6627.00
2022-09-01T11:33:24.215Z,6770.00
2022-09-01T11:34:24.201Z,6689.00
2022-09-01T11:35:24.191Z,6526.00
2022-09-01T11:36:24.203Z,6841.00
2022-09-01T11:37:27.340Z,6121.00
2022-09-01T11:38:24.155Z,6226.00
2022-09-01T11:39:24.155Z,6303.00
2022-09-01T11:40:24.210Z,6048.00
2022-09-01T11:41:24.201Z,6086.00
2022-09-01T11:42:24.120Z,6178.00
2022-09-01T11:43:24.124Z,6294.00
2022-09-01T11:44:24.096Z,10148.00
2022-09-01T11:45:24.095Z,5036.00
2022-09-01T11:46:24.183Z,625.00
2022-09-01T11:47:24.077Z,3678.00
2022-09-01T11:48:24.059Z,1323.00
2022-09-01T11:49:24.056Z,466.00
2022-09-01T11:50:24.040Z,211.00
2022-09-01T11:51:24.059Z,207.00
2022-09-01T11:52:24.039Z,644.00
2022-09-01T11:53:24.019Z,583.00
2022-09-01T11:54:24.001Z,410.00
2022-09-01T11:55:23.992Z,321.00
2022-09-01T11:56:24.011Z,302.00
2022-09-01T11:57:23.973Z,549.00
2022-09-01T11:58:23.963Z,552.00
2022-09-01T11:59:23.954Z,275.00
2022-09-01T12:00:23.944Z,837.00
2022-09-01T12:01:23.984Z,495.00
2022-09-01T12:02:23.979Z,266.00
2022-09-01T12:03:24.167Z,3085.00
2022-09-01T12:04:23.904Z,4362.00
2022-09-01T12:05:23.896Z,843.00
2022-09-01T12:06:23.890Z,279.00
2022-09-01T12:07:23.898Z,507.00
2022-09-01T12:08:24.130Z,2209.00
2022-09-01T12:09:23.859Z,360.00
2022-09-01T12:10:23.841Z,309.00
2022-09-01T12:11:23.837Z,785.00
2022-09-01T12:12:23.848Z,321.00
2022-09-01T12:13:23.820Z,1804.00
2022-09-01T12:14:23.801Z,423.00
2022-09-01T12:15:23.798Z,669.00
2022-09-01T12:16:23.863Z,2305.00
2022-09-01T12:17:23.811Z,3628.00
2022-09-01T12:18:23.763Z,1536.00
2022-09-01T12:19:23.761Z,2789.00
2022-09-01T12:20:28.665Z,2150.00
2022-09-01T12:21:24.733Z,2406.00
2022-09-01T12:22:23.754Z,2061.00
2022-09-01T12:23:23.716Z,1874.00
2022-09-01T12:24:23.717Z,2129.00
2022-09-01T12:25:23.705Z,2588.00
2022-09-01T12:26:23.684Z,1189.00
2022-09-01T12:27:23.696Z,1957.00
2022-09-01T12:28:23.668Z,2063.00
2022-09-01T12:29:23.659Z,1723.00
2022-09-01T12:30:23.638Z,1846.00
2022-09-01T12:31:23.762Z,1895.00
2022-09-01T12:32:23.652Z,1612.00
2022-09-01T12:33:24.188Z,1879.00
2022-09-01T12:34:23.600Z,1674.00
2022-09-01T12:35:23.598Z,1753.00
2022-09-01T12:36:23.581Z,1736.00
2022-09-01T12:37:23.630Z,1652.00
2022-09-01T12:38:23.641Z,1778.00
2022-09-01T12:39:23.563Z,3043.00
2022-09-01T12:40:23.590Z,1193.00
2022-09-01T12:42:23.544Z,1216.00
2022-09-01T12:43:23.515Z,430.00
2022-09-01T12:44:23.504Z,1462.00
2022-09-01T12:45:23.504Z,631.00
2022-09-01T12:46:23.483Z,1347.00
2022-09-01T12:47:23.506Z,1410.00
2022-09-01T12:48:23.465Z,3116.00
2022-09-01T12:49:23.457Z,959.00
2022-09-01T12:50:23.445Z,524.00
2022-09-01T12:51:26.549Z,1872.00
2022-09-01T12:52:23.448Z,751.00
2022-09-01T12:53:23.528Z,1260.00
2022-09-01T12:54:23.419Z,2555.00
2022-09-01T12:56:24.379Z,443.00
2022-09-01T12:57:23.401Z,2696.00